Time;durP1;ratioP1;P1;durP2;ratioP2;P2;SDS_P1;SDS_P2;PMS_P1;PMS_P2;Temp;Humidity;BMP_temperature;BMP_pressure;BME280_temperature;BME280_humidity;BME280_pressure;Samples;Min_cycle;Max_cycle;Signal;HPM_P1;HPM_P2
2022/10/27 00:00:43;;;;;;;4.93;4.10;;;;;;;11.52;100.00;100779.42;1778740;79;21052;-64
2022/10/27 00:03:12;;;;;;;12.58;4.42;;;;;;;11.52;100.00;100785.58;1773063;80;21057;-64
2022/10/27 00:05:38;;;;;;;5.95;4.37;;;;;;;11.50;100.00;100792.43;1775527;79;20941;-64
2022/10/27 00:08:04;;;;;;;6.37;4.83;;;;;;;11.49;100.00;100797.46;1773360;79;21157;-64
2022/10/27 00:10:30;;;;;;;;;;;;;;;11.48;100.00;100799.80;1776332;80;21036;-64
2022/10/27 00:12:57;;;;;;;8.60;4.47;;;;;;;11.48;100.00;100803.80;1772028;80;20140;-63
2022/10/27 00:15:25;;;;;;;6.27;4.23;;;;;;;11.44;100.00;100799.84;1773185;80;21062;-64
2022/10/27 00:17:51;;;;;;;4.95;4.35;;;;;;;11.45;100.00;100796.17;1776650;79;21041;-65
2022/10/27 00:20:18;;;;;;;6.85;4.72;;;;;;;11.47;100.00;100794.15;1772355;79;21017;-64
2022/10/27 00:22:45;;;;;;;6.50;4.10;;;;;;;11.49;100.00;100798.80;1743162;81;21079;-64
2022/10/27 00:25:12;;;;;;;4.00;3.70;;;;;;;11.50;100.00;100797.77;1751308;81;20966;-63
2022/10/27 00:27:38;;;;;;;8.13;4.87;;;;;;;11.53;100.00;100799.75;1776046;80;20994;-64
2022/10/27 00:30:07;;;;;;;6.22;5.37;;;;;;;11.53;100.00;100801.94;1781754;79;21017;-63
2022/10/27 00:32:33;;;;;;;9.40;4.12;;;;;;;11.53;100.00;100799.75;1777204;79;20986;-64
2022/10/27 00:35:01;;;;;;;6.75;5.28;;;;;;;11.52;100.00;100796.77;1763350;81;21022;-64
2022/10/27 00:37:29;;;;;;;5.08;4.28;;;;;;;11.50;100.00;100807.11;1790639;79;20956;-64
2022/10/27 00:39:55;;;;;;;6.90;4.17;;;;;;;11.52;100.00;100808.78;1789798;79;21025;-64
2022/10/27 00:42:21;;;;;;;5.08;4.55;;;;;;;11.50;100.00;100816.45;1790851;79;21060;-64
2022/10/27 00:44:48;;;;;;;5.37;4.67;;;;;;;11.49;100.00;100812.14;1759244;81;21486;-65
2022/10/27 00:47:31;;;;;;;8.68;4.75;;;;;;;11.50;100.00;100816.45;1786398;80;21009;-64
2022/10/27 00:50:02;;;;;;;5.97;5.37;;;;;;;11.50;100.00;100812.97;1778637;80;21494;-64
2022/10/27 00:52:44;;;;;;;9.10;4.95;;;;;;;11.47;100.00;100810.65;1777692;79;20993;-64
2022/10/27 00:55:16;;;;;;;8.08;4.87;;;;;;;11.47;100.00;100811.50;1725139;82;21033;-63
2022/10/27 00:57:48;;;;;;;6.08;5.47;;;;;;;11.46;100.00;100818.35;1769478;80;20989;-64
2022/10/27 01:00:16;;;;;;;6.00;5.42;;;;;;;11.47;100.00;100816.84;1777979;80;21099;-64
2022/10/27 01:02:43;;;;;;;5.97;5.00;;;;;;;11.45;100.00;100812.19;1773275;80;20966;-63
2022/10/27 01:05:17;;;;;;;8.30;5.15;;;;;;;11.45;100.00;100812.67;1764108;80;20982;-63
2022/10/27 01:07:46;;;;;;;8.50;5.90;;;;;;;11.47;100.00;100812.84;1779534;80;20950;-63
2022/10/27 01:10:14;;;;;;;5.47;4.97;;;;;;;11.48;100.00;100811.80;1760002;81;21014;-66
2022/10/27 01:12:41;;;;;;;5.05;4.45;;;;;;;11.46;100.00;100819.69;1771535;80;21068;-64
2022/10/27 01:15:09;;;;;;;5.97;5.33;;;;;;;11.46;100.00;100821.02;1794515;79;21113;-65
2022/10/27 01:18:03;;;;;;;5.67;5.10;;;;;;;11.46;100.00;100826.36;1784587;79;21048;-64
2022/10/27 01:21:05;;;;;;;5.60;4.90;;;;;;;11.46;100.00;100828.52;1766581;80;21011;-63
2022/10/27 01:24:18;;;;;;;6.22;4.90;;;;;;;11.48;100.00;100831.83;1763316;79;21001;-67
2022/10/27 01:26:58;;;;;;;7.47;5.22;;;;;;;11.42;100.00;100833.90;1771406;80;21016;-63
2022/10/27 01:29:43;;;;;;;6.83;5.15;;;;;;;11.44;100.00;100833.21;1767683;80;21532;-67
2022/10/27 01:32:38;;;;;;;5.95;4.70;;;;;;;11.04;100.00;100768.55;1741096;79;21477;-64
2022/10/27 01:35:31;;;;;;;6.35;4.65;;;;;;;11.39;100.00;100835.59;1758959;80;21467;-63
2022/10/27 01:38:17;;;;;;;7.55;5.28;;;;;;;11.39;100.00;100840.10;1771757;80;20978;-64
2022/10/27 01:40:52;;;;;;;5.40;4.95;;;;;;;11.41;100.00;100846.09;1760998;80;21076;-64
2022/10/27 01:43:24;;;;;;;4.85;4.35;;;;;;;11.43;100.00;100845.40;1778441;80;21089;-64
2022/10/27 01:45:53;;;;;;;5.30;4.90;;;;;;;11.42;100.00;100850.43;1771407;80;21415;-64
2022/10/27 01:48:19;;;;;;;5.67;5.05;;;;;;;11.38;100.00;100841.95;1780553;79;21558;-64
2022/10/27 01:50:46;;;;;;;5.08;4.58;;;;;;;11.35;100.00;100850.31;1791008;79;21010;-64
2022/10/27 01:53:17;;;;;;;5.00;4.53;;;;;;;11.33;100.00;100857.67;1741283;81;21045;-65
2022/10/27 01:56:13;;;;;;;7.10;5.10;;;;;;;11.35;100.00;100858.31;1773615;79;20996;-63
2022/10/27 01:59:14;;;;;;;5.45;4.90;;;;;;;11.38;100.00;100859.81;1791340;79;21033;-64
2022/10/27 02:01:55;;;;;;;9.90;5.20;;;;;;;11.38;100.00;100859.81;1790495;79;20967;-64
2022/10/27 02:05:00;;;;;;;7.30;4.70;;;;;;;11.32;100.00;100864.52;1690095;83;21073;-63
2022/10/27 02:08:08;;;;;;;5.95;4.47;;;;;;;11.29;100.00;100863.05;1750790;81;21042;-65
2022/10/27 02:11:02;;;;;;;8.30;5.07;;;;;;;11.28;100.00;100867.56;1775965;79;21078;-63
2022/10/27 02:13:32;;;;;;;4.90;4.23;;;;;;;11.34;100.00;100873.17;1764104;81;21021;-64
2022/10/27 02:16:04;;;;;;;5.37;4.87;;;;;;;11.32;100.00;100872.52;1791881;79;21037;-64
2022/10/27 02:18:38;;;;;;;5.95;4.12;;;;;;;11.28;100.00;100881.39;1794956;79;21450;-65
2022/10/27 02:21:07;;;;;;;5.53;4.33;;;;;;;11.27;100.00;100878.41;1802786;78;20966;-64
2022/10/27 02:23:35;;;;;;;5.05;4.28;;;;;;;11.25;100.00;100883.11;1804617;79;20990;-63
2022/10/27 02:26:18;;;;;;;4.03;3.53;;;;;;;11.25;100.00;100888.44;1787728;79;21044;-64
2022/10/27 02:28:53;;;;;;;4.30;3.90;;;;;;;11.20;100.00;100887.63;1786807;78;21013;-64
2022/10/27 02:31:26;;;;;;;5.08;4.42;;;;;;;11.21;100.00;100892.48;1759759;80;21072;-65
2022/10/27 02:33:53;;;;;;;5.97;4.37;;;;;;;11.21;100.00;100898.64;1790627;79;21489;-64
2022/10/27 02:36:19;;;;;;;6.47;5.00;;;;;;;11.23;100.00;100894.47;1762723;80;21502;-64
2022/10/27 02:38:45;;;;;;;4.78;4.37;;;;;;;11.24;100.00;100898.27;1786852;79;21025;-66
2022/10/27 02:41:11;;;;;;;5.95;3.55;;;;;;;11.27;100.00;100899.25;1754474;80;20988;-65
2022/10/27 02:43:37;;;;;;;4.28;3.98;;;;;;;11.27;100.00;100899.77;1761111;81;21470;-65
2022/10/27 02:46:04;;;;;;;7.00;4.53;;;;;;;11.24;100.00;100898.77;1773313;80;21013;-64
2022/10/27 02:48:30;;;;;;;6.47;4.65;;;;;;;11.20;100.00;100909.48;1769367;81;20958;-65
2022/10/27 02:50:56;;;;;;;5.37;4.15;;;;;;;11.18;100.00;100908.33;1767726;80;21502;-64
2022/10/27 02:53:22;;;;;;;;;;;;;;;11.21;100.00;100909.83;1791379;79;21033;-64
2022/10/27 02:55:49;;;;;;;5.93;4.53;;;;;;;11.21;100.00;100904.48;1803367;79;20166;-62
2022/10/27 02:58:15;;;;;;;6.10;4.47;;;;;;;11.17;100.00;100909.83;1802503;78;21084;-63
2022/10/27 03:00:42;;;;;;;4.58;4.15;;;;;;;11.16;100.00;100909.52;1803165;78;21744;-64
2022/10/27 03:03:08;;;;;;;6.50;4.78;;;;;;;11.16;100.00;100904.19;1802249;79;21064;-65
2022/10/27 03:05:34;;;;;;;8.50;3.87;;;;;;;11.16;100.00;100908.19;1803110;79;21036;-63
2022/10/27 03:08:00;;;;;;;4.45;4.05;;;;;;;11.14;100.00;100915.55;1811844;78;21052;-65
2022/10/27 03:10:26;;;;;;;4.78;4.30;;;;;;;11.14;100.00;100918.21;1805667;78;21001;-66
2022/10/27 03:12:53;;;;;;;6.23;4.00;;;;;;;11.16;100.00;100911.67;1794127;78;20973;-63
2022/10/27 03:15:19;;;;;;;7.28;4.47;;;;;;;11.16;100.00;100913.52;1819153;78;21097;-65
2022/10/27 03:17:47;;;;;;;3.93;3.57;;;;;;;11.15;100.00;100915.85;1809841;78;21036;-64
2022/10/27 03:20:15;;;;;;;5.00;4.43;;;;;;;11.13;100.00;100913.87;1803757;78;21451;-63
2022/10/27 03:22:42;;;;;;;5.07;4.57;;;;;;;11.14;100.00;100918.21;1797777;78;21525;-63
2022/10/27 03:25:10;;;;;;;5.50;3.80;;;;;;;11.13;100.00;100912.02;1803593;79;21041;-63
2022/10/27 03:27:41;;;;;;;4.53;4.12;;;;;;;11.12;100.00;100918.38;1803264;78;21075;-64
2022/10/27 03:30:12;;;;;;;6.23;4.40;;;;;;;11.14;100.00;100919.55;1811041;78;20958;-64
2022/10/27 03:32:42;;;;;;;4.62;4.30;;;;;;;11.17;100.00;100924.02;1804805;78;21470;-64
2022/10/27 03:35:08;;;;;;;5.58;4.53;;;;;;;11.18;100.00;100916.84;1772836;80;21050;-64
2022/10/27 03:37:35;;;;;;;8.33;5.50;;;;;;;11.16;100.00;100921.53;1803486;79;21052;-64
2022/10/27 03:40:01;;;;;;;4.35;3.95;;;;;;;11.10;100.00;100925.22;1802613;78;21541;-64
2022/10/27 03:42:27;;;;;;;9.00;4.35;;;;;;;11.10;100.00;100925.22;1809619;78;20954;-64
2022/10/27 03:44:53;;;;;;;5.60;4.85;;;;;;;11.13;100.00;100925.88;1808928;78;21064;-63
2022/10/27 03:47:19;;;;;;;9.20;4.53;;;;;;;11.13;100.00;100932.55;1810201;79;20994;-62
2022/10/27 03:49:45;;;;;;;6.30;3.98;;;;;;;11.12;100.00;100934.91;1811928;78;21446;-63
2022/10/27 03:52:12;;;;;;;5.83;4.85;;;;;;;11.13;100.00;100933.88;1803560;79;20965;-63
2022/10/27 03:54:39;;;;;;;5.97;4.87;;;;;;;11.13;100.00;100933.36;1804851;78;20986;-64
2022/10/27 03:57:05;;;;;;;5.50;4.08;;;;;;;11.16;100.00;100930.86;1802083;78;21040;-63
2022/10/27 03:59:31;;;;;;;5.75;4.25;;;;;;;11.18;100.00;100935.00;1801336;78;21049;-63
2022/10/27 04:01:57;;;;;;;9.15;4.87;;;;;;;11.21;100.00;100934.66;1813484;78;20975;-63
2022/10/27 04:04:23;;;;;;;10.82;4.30;;;;;;;11.23;100.00;100935.83;1808882;78;20990;-64
2022/10/27 04:06:49;;;;;;;6.05;4.72;;;;;;;11.25;100.00;100937.81;1805181;79;20996;-64
2022/10/27 04:09:15;;;;;;;5.03;4.62;;;;;;;11.26;100.00;100934.11;1813369;78;21005;-65
2022/10/27 04:11:41;;;;;;;12.00;4.30;;;;;;;11.26;100.00;100938.97;1803529;79;21524;-64
2022/10/27 04:14:07;;;;;;;5.17;4.80;;;;;;;11.28;100.00;100944.11;1817993;78;21032;-64
2022/10/27 04:16:35;;;;;;;6.45;4.78;;;;;;;11.29;100.00;100948.45;1798563;78;20981;-63
2022/10/27 04:19:01;;;;;;;5.50;3.70;;;;;;;11.29;100.00;100951.12;1732053;81;21114;-64
2022/10/27 04:21:28;;;;;;;5.20;4.70;;;;;;;11.29;100.00;100953.78;1774936;79;21041;-66
2022/10/27 04:23:54;;;;;;;7.08;5.50;;;;;;;11.29;100.00;100954.61;1809641;78;21024;-64
2022/10/27 04:26:21;;;;;;;7.67;5.33;;;;;;;11.30;100.00;100956.77;1789388;79;21500;-67
2022/10/27 04:28:48;;;;;;;5.03;4.60;;;;;;;11.33;100.00;100958.27;1797448;78;21481;-65
2022/10/27 04:31:16;;;;;;;10.88;6.00;;;;;;;11.34;100.00;100955.91;1805527;78;21517;-66
2022/10/27 04:33:43;;;;;;;9.60;5.53;;;;;;;11.38;100.00;100958.57;1797152;79;20993;-67
2022/10/27 04:36:09;;;;;;;4.20;3.85;;;;;;;11.39;100.00;100965.55;1799984;78;21592;-68
2022/10/27 04:38:35;;;;;;;5.67;5.05;;;;;;;11.40;100.00;100961.89;1795839;78;21063;-64
2022/10/27 04:41:02;;;;;;;7.28;5.28;;;;;;;11.41;100.00;100960.35;1803128;78;21076;-64
2022/10/27 04:43:28;;;;;;;5.58;4.75;;;;;;;11.44;100.00;100954.66;1800544;79;21048;-65
2022/10/27 04:45:54;;;;;;;8.15;6.03;;;;;;;11.46;100.00;100957.98;1801244;78;21284;-64
2022/10/27 04:48:20;;;;;;;8.08;4.83;;;;;;;11.43;100.00;100959.70;1800797;79;21505;-64
2022/10/27 04:50:48;;;;;;;7.80;4.85;;;;;;;11.38;100.00;100960.73;1801514;78;21624;-66
2022/10/27 04:53:14;;;;;;;11.22;5.33;;;;;;;11.37;100.00;100966.23;1800473;79;21040;-63
2022/10/27 04:55:40;;;;;;;8.60;5.95;;;;;;;11.37;100.00;100969.73;1799591;78;20986;-62
2022/10/27 04:58:06;;;;;;;8.85;6.45;;;;;;;11.38;100.00;100968.73;1797478;78;21022;-62
2022/10/27 05:00:33;;;;;;;6.65;5.28;;;;;;;11.41;100.00;100978.21;1800854;78;21029;-63
2022/10/27 05:02:59;;;;;;;6.83;5.67;;;;;;;11.41;100.00;100982.22;1801144;78;21111;-63
2022/10/27 05:05:28;;;;;;;8.05;6.20;;;;;;;11.42;100.00;100983.38;1802925;78;21044;-63
2022/10/27 05:07:57;;;;;;;11.25;5.33;;;;;;;11.43;100.00;100993.06;1801379;79;21061;-63
2022/10/27 05:10:24;;;;;;;6.03;5.45;;;;;;;11.44;100.00;100994.70;1798895;79;20957;-63
2022/10/27 05:12:50;;;;;;;8.78;5.35;;;;;;;11.44;100.00;100999.22;1799995;79;21640;-66
2022/10/27 05:15:18;;;;;;;7.05;5.33;;;;;;;11.40;100.00;101000.08;1801548;79;21129;-63
2022/10/27 05:18:54;;;;;;;7.37;5.42;;;;;;;11.39;100.00;100998.41;1830515;76;22937;-68
2022/10/27 05:21:20;;;;;;;10.60;5.83;;;;;;;11.35;100.00;100998.95;1753065;78;21496;-68
2022/10/27 05:23:48;;;;;;;6.78;4.33;;;;;;;11.39;100.00;101001.08;1729345;81;21494;-67
2022/10/27 05:26:16;;;;;;;6.85;5.33;;;;;;;11.41;100.00;101000.39;1748242;80;21032;-69
2022/10/27 05:28:44;;;;;;;8.43;5.80;;;;;;;11.43;100.00;101009.08;1761325;80;21084;-67
2022/10/27 05:31:10;;;;;;;6.20;5.60;;;;;;;11.41;100.00;101005.73;1759011;80;21040;-66
2022/10/27 05:33:36;;;;;;;11.97;6.08;;;;;;;11.43;100.00;101011.75;1753116;80;21084;-65
2022/10/27 05:36:03;;;;;;;9.50;5.60;;;;;;;11.38;100.00;100998.09;1756396;80;20998;-67
2022/10/27 05:38:29;;;;;;;10.55;6.22;;;;;;;11.44;100.00;101012.57;1757106;80;21074;-69
2022/10/27 05:40:57;;;;;;;8.95;5.42;;;;;;;11.40;100.00;101016.09;1744603;80;21021;-68
2022/10/27 05:43:24;;;;;;;9.90;5.33;;;;;;;11.42;100.00;101015.41;1747751;80;20943;-77
2022/10/27 05:45:51;;;;;;;;;;;;;;;11.43;100.00;101019.76;1741825;80;21064;-72
2022/10/27 05:48:17;;;;;;;9.85;5.28;;;;;;;11.45;100.00;101020.89;1744468;80;20145;-63
2022/10/27 05:50:43;;;;;;;10.58;5.35;;;;;;;11.37;100.00;101026.30;1773278;80;21487;-65
2022/10/27 05:53:09;;;;;;;16.35;6.80;;;;;;;11.27;100.00;101014.00;1739752;80;21029;-63
2022/10/27 05:55:37;;;;;;;17.12;11.85;;;;;;;11.30;100.00;101031.48;1729846;81;20993;-66
2022/10/27 05:58:06;;;;;;;9.58;6.28;;;;;;;11.29;100.00;101033.84;1736565;81;21022;-66
2022/10/27 06:00:37;;;;;;;8.28;5.30;;;;;;;11.32;100.00;101028.65;1737932;81;20986;-66
2022/10/27 06:03:10;;;;;;;9.50;4.90;;;;;;;11.32;100.00;101033.98;1755686;80;21056;-65
2022/10/27 06:05:37;;;;;;;7.75;5.28;;;;;;;11.26;100.00;101034.19;1688285;80;21539;-66
2022/10/27 06:08:04;;;;;;;5.75;5.00;;;;;;;11.24;100.00;101042.88;1651668;84;21584;-64
2022/10/27 06:10:31;;;;;;;8.48;5.30;;;;;;;11.27;100.00;101042.53;1685275;83;21091;-68
2022/10/27 06:13:03;;;;;;;8.75;7.85;;;;;;;11.32;100.00;101048.67;1694789;82;21493;-67
2022/10/27 06:15:32;;;;;;;8.35;5.22;;;;;;;11.35;100.00;101046.48;1708027;82;20976;-63
2022/10/27 06:17:59;;;;;;;6.47;5.10;;;;;;;11.40;100.00;101049.97;1696802;83;21120;-61
2022/10/27 06:20:26;;;;;;;;;;;;;;;11.41;100.00;101052.44;1696374;83;21016;-64
2022/10/27 06:22:53;;;;;;;7.12;4.35;;;;;;;11.44;100.00;101056.62;1700704;83;20138;-60
2022/10/27 06:25:19;;;;;;;5.87;5.28;;;;;;;11.41;100.00;101063.13;1652593;85;21088;-62
2022/10/27 06:27:47;;;;;;;;;;;;;;;11.45;100.00;101061.78;1657030;85;21021;-63
2022/10/27 06:30:14;;;;;;;;;;;;;;;11.47;100.00;101066.44;1648561;85;20479;-61
2022/10/27 06:32:41;;;;;;;7.23;5.70;;;;;;;11.42;100.00;101058.13;1655955;84;20418;-62
2022/10/27 06:35:10;;;;;;;10.28;6.15;;;;;;;11.39;100.00;101066.98;1636634;85;21105;-63
2022/10/27 06:37:39;;;;;;;6.47;5.50;;;;;;;11.38;99.83;101070.16;1640532;85;20998;-62
2022/10/27 06:40:07;;;;;;;5.72;5.12;;;;;;;11.33;99.81;101072.52;1649604;85;21048;-63
2022/10/27 06:42:36;;;;;;;5.60;4.90;;;;;;;11.25;100.00;101072.58;1640546;85;21497;-61
2022/10/27 06:45:06;;;;;;;7.17;5.95;;;;;;;11.20;100.00;101067.74;1641570;85;21526;-61
2022/10/27 06:47:33;;;;;;;9.70;5.78;;;;;;;11.18;100.00;101071.60;1652262;85;21001;-62
2022/10/27 06:50:00;;;;;;;9.80;4.80;;;;;;;11.15;100.00;101077.27;1641239;84;21563;-61
2022/10/27 06:52:26;;;;;;;6.17;5.10;;;;;;;11.16;100.00;101073.62;1644443;85;21566;-62
2022/10/27 06:54:52;;;;;;;10.25;5.83;;;;;;;11.19;100.00;101080.77;1648566;85;21107;-63
2022/10/27 06:57:18;;;;;;;9.43;5.95;;;;;;;11.23;100.00;101087.42;1672692;82;21489;-61
2022/10/27 06:59:44;;;;;;;7.30;5.42;;;;;;;11.28;100.00;101089.07;1630423;87;20988;-64
2022/10/27 07:02:13;;;;;;;6.65;4.50;;;;;;;11.33;100.00;101095.20;1643778;85;20982;-63
2022/10/27 07:04:42;;;;;;;6.47;5.67;;;;;;;11.37;100.00;101091.69;1650140;83;21024;-63
2022/10/27 07:07:08;;;;;;;7.22;6.05;;;;;;;11.39;100.00;101095.01;1683925;83;21197;-63
2022/10/27 07:09:35;;;;;;;6.53;5.92;;;;;;;11.40;99.80;101089.50;1680101;83;21028;-63
2022/10/27 07:12:02;;;;;;;5.53;5.03;;;;;;;11.43;99.93;101089.16;1701513;83;21107;-64
2022/10/27 07:14:30;;;;;;;8.78;5.03;;;;;;;11.47;99.72;101091.80;1680264;84;21025;-60
2022/10/27 07:16:58;;;;;;;11.77;5.23;;;;;;;11.49;99.44;101096.46;1690925;83;21014;-62
2022/10/27 07:19:24;;;;;;;9.00;5.40;;;;;;;11.50;99.28;101087.94;1689868;83;21057;-65
2022/10/27 07:21:51;;;;;;;6.50;3.95;;;;;;;11.53;99.26;101092.08;1681902;83;20985;-65
2022/10/27 07:24:18;;;;;;;8.18;4.03;;;;;;;11.60;99.01;101097.05;1695498;83;21515;-64
2022/10/27 07:26:44;;;;;;;5.58;4.67;;;;;;;11.64;98.72;101106.37;1678904;83;21002;-65
2022/10/27 07:29:10;;;;;;;4.90;4.47;;;;;;;11.70;98.69;101111.03;1688740;83;21557;-61
2022/10/27 07:31:37;;;;;;;5.80;5.30;;;;;;;11.75;98.27;101095.79;1683598;83;21096;-66
2022/10/27 07:34:03;;;;;;;10.32;5.45;;;;;;;11.79;97.84;101107.78;1689120;83;21037;-68
2022/10/27 07:36:29;;;;;;;6.50;5.72;;;;;;;11.82;97.76;101103.42;1683838;83;21162;-63
2022/10/27 07:38:55;;;;;;;19.25;14.65;;;;;;;11.83;97.27;101109.94;1663078;84;21051;-65
2022/10/27 07:41:21;;;;;;;11.30;7.72;;;;;;;11.84;97.05;101102.74;1670490;84;21335;-64
2022/10/27 07:43:48;;;;;;;9.58;8.60;;;;;;;11.86;97.00;101107.40;1668249;84;21038;-65
2022/10/27 07:46:14;;;;;;;6.60;5.90;;;;;;;11.87;96.73;101112.57;1666791;84;21103;-63
2022/10/27 07:48:42;;;;;;;6.70;5.03;;;;;;;11.87;96.54;101103.73;1671397;83;21575;-64
2022/10/27 07:51:08;;;;;;;9.83;4.95;;;;;;;11.91;96.75;101116.27;1688081;83;21094;-63
2022/10/27 07:53:34;;;;;;;9.85;7.92;;;;;;;11.95;96.78;101112.22;1681067;83;20985;-65
2022/10/27 07:56:01;;;;;;;8.43;6.85;;;;;;;11.99;96.52;101113.52;1693147;83;21044;-64
2022/10/27 07:58:28;;;;;;;7.62;5.58;;;;;;;12.00;96.28;101120.03;1693405;83;21669;-63
2022/10/27 08:00:59;;;;;;;5.53;4.95;;;;;;;12.03;96.06;101118.31;1681811;84;21083;-63
2022/10/27 08:03:28;;;;;;;10.40;5.20;;;;;;;12.12;96.06;101118.27;1694151;83;21120;-65
2022/10/27 08:05:57;;;;;;;8.58;5.75;;;;;;;12.16;95.26;101112.38;1685788;83;21144;-64
2022/10/27 08:08:24;;;;;;;4.97;4.53;;;;;;;12.19;95.04;101112.03;1687063;83;21060;-64
2022/10/27 08:10:50;;;;;;;4.58;3.75;;;;;;;12.26;94.97;101119.66;1683753;84;21056;-67
2022/10/27 08:13:17;;;;;;;5.37;4.35;;;;;;;12.35;94.60;101121.73;1688978;84;21160;-66
2022/10/27 08:15:44;;;;;;;;;;;;;;;12.44;94.21;101121.98;1680552;84;21135;-64
2022/10/27 08:18:11;;;;;;;6.62;4.25;;;;;;;12.52;93.56;101130.44;1689330;83;20444;-64
2022/10/27 08:20:45;;;;;;;7.53;4.40;;;;;;;12.54;93.06;101127.07;1682977;83;21592;-68
2022/10/27 08:23:17;;;;;;;8.33;4.05;;;;;;;12.58;92.36;101136.90;1692585;83;21017;-65
2022/10/27 08:25:44;;;;;;;6.78;5.00;;;;;;;12.57;92.32;101131.24;1683556;83;21019;-68
2022/10/27 08:28:11;;;;;;;;;;;;;;;12.57;91.64;101135.25;1678904;84;21024;-63
2022/10/27 08:30:40;;;;;;;5.05;4.65;;;;;;;12.49;91.74;101132.64;1680825;84;20115;-66
2022/10/27 08:33:09;;;;;;;5.40;4.05;;;;;;;12.38;92.61;101137.42;1679997;84;21378;-65
2022/10/27 08:35:37;;;;;;;4.72;4.25;;;;;;;12.39;92.87;101141.74;1686095;83;21264;-66
2022/10/27 08:38:15;;;;;;;7.22;4.40;;;;;;;12.44;92.55;101139.37;1680688;83;21561;-64
2022/10/27 08:41:15;;;;;;;6.15;4.08;;;;;;;12.45;92.46;101149.06;1679642;83;21527;-66
2022/10/27 08:44:04;;;;;;;8.75;4.53;;;;;;;12.46;92.54;101148.55;1681719;84;21068;-65
2022/10/27 08:46:54;;;;;;;7.42;4.10;;;;;;;12.48;92.32;101149.71;1687383;83;21025;-64
2022/10/27 08:49:31;;;;;;;5.53;3.58;;;;;;;12.46;92.00;101153.38;1666955;83;21117;-63
2022/10/27 08:52:14;;;;;;;4.67;4.28;;;;;;;12.48;92.28;101149.20;1680629;83;21013;-65
2022/10/27 08:54:47;;;;;;;5.12;3.65;;;;;;;12.52;92.16;101145.14;1673541;83;21080;-66
2022/10/27 08:57:24;;;;;;;4.80;3.80;;;;;;;12.55;91.71;101154.67;1684661;83;21072;-65
2022/10/27 13:25:02;;;;;;;2.30;1.15;;;;;;;14.24;75.58;101216.40;1786669;77;22139;-72
2022/10/27 13:27:57;;;;;;;1.57;0.88;;;;;;;14.29;74.00;101220.69;1757771;80;21196;-73
2022/10/27 13:39:16;;;;;;;3.87;1.60;;;;;;;14.04;75.39;101225.07;1752729;80;21033;-71
2022/10/27 13:42:04;;;;;;;1.42;1.32;;;;;;;13.95;75.67;101227.55;1733899;81;21060;-71
2022/10/27 13:44:34;;;;;;;8.15;2.75;;;;;;;13.95;75.94;101231.56;1767023;79;21047;-74
2022/10/27 13:47:13;;;;;;;1.40;1.30;;;;;;;13.91;76.30;101230.28;1753836;80;20973;-73
2022/10/27 13:49:50;;;;;;;2.20;1.05;;;;;;;13.91;76.18;101234.30;1689567;82;21040;-74
2022/10/27 13:52:21;;;;;;;1.50;1.40;;;;;;;13.89;76.12;101236.34;1676344;82;21030;-72
2022/10/27 13:55:29;;;;;;;4.17;1.05;;;;;;;13.83;76.20;101237.92;1728116;81;20985;-73
2022/10/27 13:58:20;;;;;;;4.53;1.60;;;;;;;13.90;76.29;101244.69;1743891;81;21501;-73
2022/10/27 14:01:03;;;;;;;3.42;1.12;;;;;;;13.85;76.67;101239.09;1715170;81;20964;-71
2022/10/27 14:03:59;;;;;;;1.35;1.25;;;;;;;13.82;76.69;101237.10;1678673;84;21514;-71
2022/10/27 14:06:34;;;;;;;2.85;1.37;;;;;;;13.80;76.26;101239.11;1695588;83;21545;-71
2022/10/27 14:09:35;;;;;;;4.45;1.80;;;;;;;13.85;76.14;101239.91;1705995;83;20998;-71
2022/10/27 14:12:33;;;;;;;2.02;1.22;;;;;;;13.79;76.54;101234.79;1719803;82;21013;-71
2022/10/27 14:15:19;;;;;;;1.65;1.22;;;;;;;13.82;76.52;101235.77;1714130;82;21495;-72
2022/10/27 14:17:47;;;;;;;2.65;2.45;;;;;;;13.77;76.89;101238.17;1718948;82;20981;-71
2022/10/27 14:20:29;;;;;;;10.13;1.98;;;;;;;13.78;76.87;101234.45;1720365;81;21025;-72
2022/10/27 14:23:11;;;;;;;1.90;1.62;;;;;;;13.77;76.32;101237.34;1728544;81;21169;-72
2022/10/27 14:25:38;;;;;;;3.25;1.90;;;;;;;13.72;76.78;101241.91;1737947;80;21023;-72
2022/10/27 14:28:16;;;;;;;2.30;2.05;;;;;;;13.69;77.16;101238.77;1740806;81;21018;-73
2022/10/27 14:30:45;;;;;;;2.98;1.82;;;;;;;13.71;77.38;101244.28;1759097;81;21029;-73
2022/10/27 14:33:24;;;;;;;2.65;2.05;;;;;;;13.71;77.33;101243.43;1740101;81;21002;-73
2022/10/27 14:36:18;;;;;;;6.33;2.10;;;;;;;13.72;77.20;101238.41;1750350;80;21017;-71
2022/10/27 14:38:50;;;;;;;4.40;2.45;;;;;;;13.76;77.15;101237.02;1743989;81;21123;-72
2022/10/27 14:41:21;;;;;;;2.00;1.90;;;;;;;13.68;77.39;101237.13;1724027;81;21163;-72
2022/10/27 14:43:52;;;;;;;2.12;1.92;;;;;;;13.69;77.50;101237.43;1786341;79;22471;-72
2022/10/27 14:46:23;;;;;;;4.95;2.72;;;;;;;13.70;77.27;101239.92;1784670;78;21430;-73
2022/10/27 14:49:03;;;;;;;3.90;2.60;;;;;;;13.70;77.13;101242.61;1788631;79;20970;-73
2022/10/27 14:51:35;;;;;;;3.20;2.10;;;;;;;13.72;77.11;101243.25;1756028;80;21076;-72
2022/10/27 14:54:03;;;;;;;3.27;2.45;;;;;;;13.72;77.16;101249.12;1745641;81;21538;-73
2022/10/27 14:56:32;;;;;;;3.90;2.02;;;;;;;13.71;77.17;101252.32;1743514;81;21495;-72
2022/10/27 14:59:03;;;;;;;2.10;1.55;;;;;;;13.72;76.93;101245.93;1742556;81;21034;-73
2022/10/27 15:01:38;;;;;;;2.35;1.82;;;;;;;13.73;77.11;101260.15;1738965;81;21015;-70
2022/10/27 15:04:24;;;;;;;2.67;2.25;;;;;;;13.64;77.44;101264.80;1728512;82;21237;-73
2022/10/27 15:07:05;;;;;;;1.85;1.75;;;;;;;13.62;77.56;101269.51;1744296;81;20985;-73
2022/10/27 15:09:33;;;;;;;3.87;1.70;;;;;;;13.61;77.63;101273.19;1740683;81;21114;-73
2022/10/27 15:12:23;;;;;;;5.08;1.67;;;;;;;13.62;77.81;101274.87;1739076;82;20985;-73
2022/10/27 15:14:53;;;;;;;4.72;3.10;;;;;;;13.58;77.84;101279.77;1743260;81;21009;-72
2022/10/27 15:17:37;;;;;;;1.70;1.60;;;;;;;13.57;77.61;101277.27;1755193;81;21017;-75
2022/10/27 15:20:06;;;;;;;3.95;2.08;;;;;;;13.61;77.53;101272.67;1757128;80;21095;-70
2022/10/27 15:22:34;;;;;;;2.87;2.10;;;;;;;13.59;77.76;101281.41;1751505;80;21049;-74
2022/10/27 15:25:03;;;;;;;2.27;2.08;;;;;;;13.58;77.47;101282.92;1748283;80;21493;-71
2022/10/27 15:27:32;;;;;;;3.67;2.20;;;;;;;13.52;77.84;101280.99;1750577;81;21039;-75
2022/10/27 15:30:00;;;;;;;3.42;1.98;;;;;;;13.51;78.10;101287.38;1744190;81;20997;-72
2022/10/27 15:32:31;;;;;;;3.60;1.95;;;;;;;13.50;78.21;101282.52;1787992;79;21043;-72
2022/10/27 15:34:57;;;;;;;2.25;2.00;;;;;;;13.46;78.35;101292.45;1785179;80;20993;-72
2022/10/27 15:37:29;;;;;;;7.35;4.12;;;;;;;13.48;78.37;101291.75;1766783;80;21541;-75
2022/10/27 15:40:17;;;;;;;3.15;2.33;;;;;;;13.46;78.42;101288.44;1778434;80;20966;-74
2022/10/27 15:42:43;;;;;;;4.20;2.17;;;;;;;13.47;78.38;101286.06;1779365;80;21010;-74
2022/10/27 15:45:32;;;;;;;3.10;2.72;;;;;;;13.46;78.51;101280.40;1785793;79;21087;-75
2022/10/27 15:47:59;;;;;;;2.55;1.67;;;;;;;13.46;78.35;101289.77;1788786;80;21451;-76
2022/10/27 15:50:37;;;;;;;3.95;1.80;;;;;;;13.44;78.57;101282.73;1789211;79;21061;-74
2022/10/27 15:53:16;;;;;;;3.62;2.10;;;;;;;13.48;78.42;101286.41;1765052;80;21473;-75
2022/10/27 15:56:00;;;;;;;5.92;2.65;;;;;;;13.48;78.15;101289.08;1777042;79;20968;-74
2022/10/27 15:58:31;;;;;;;3.27;2.27;;;;;;;13.49;78.10;101286.22;1786382;79;21051;-74
2022/10/27 16:01:32;;;;;;;5.10;2.95;;;;;;;13.49;78.05;101290.75;1788471;79;21607;-75
2022/10/27 16:04:04;;;;;;;3.37;2.58;;;;;;;13.49;78.37;101292.09;1779225;80;20997;-75
2022/10/27 16:06:35;;;;;;;6.10;2.17;;;;;;;13.44;78.32;101288.09;1753633;80;21077;-74
2022/10/27 16:09:04;;;;;;;7.70;2.98;;;;;;;13.43;78.43;101290.98;1741838;81;21083;-75
2022/10/27 16:11:40;;;;;;;7.92;2.90;;;;;;;13.37;78.62;101300.58;1746986;80;21630;-74
2022/10/27 16:14:13;;;;;;;4.58;2.83;;;;;;;13.40;78.75;101295.36;1744332;81;21089;-73
2022/10/27 16:16:40;;;;;;;4.00;2.83;;;;;;;13.31;79.24;101297.79;1741323;81;21056;-75